createdAt,value
2019-02-20T00:01:25.438Z,18.23
2019-02-20T00:03:54.505Z,8.30
2019-02-20T00:06:23.810Z,22.73
2019-02-20T00:08:52.858Z,20.33
2019-02-20T00:11:21.970Z,22.30
2019-02-20T00:13:51.179Z,24.77
2019-02-20T00:16:22.415Z,20.30
2019-02-20T00:18:54.011Z,18.07
2019-02-20T00:21:23.073Z,21.77
2019-02-20T00:23:52.117Z,23.43
2019-02-20T00:26:21.575Z,16.87
2019-02-20T00:28:52.610Z,17.83
2019-02-20T00:31:21.701Z,17.67
2019-02-20T00:33:50.668Z,19.00
2019-02-20T00:36:19.742Z,16.83
2019-02-20T00:38:49.026Z,20.63
2019-02-20T00:41:18.967Z,17.77
2019-02-20T00:44:00.922Z,17.60
2019-02-20T00:46:35.153Z,24.77
2019-02-20T00:49:12.205Z,26.13
2019-02-20T00:51:51.083Z,21.17
2019-02-20T00:54:20.169Z,16.47
2019-02-20T00:56:49.255Z,23.27
2019-02-20T00:59:18.666Z,20.90
2019-02-20T01:01:47.757Z,20.20
2019-02-20T01:04:16.854Z,18.60
2019-02-20T01:06:45.871Z,19.23
2019-02-20T01:09:14.932Z,20.00
2019-02-20T01:11:43.947Z,18.17
2019-02-20T01:14:13.239Z,26.80
2019-02-20T01:16:42.736Z,15.97
2019-02-20T01:19:11.728Z,16.80
2019-02-20T01:21:41.755Z,21.23
2019-02-20T01:24:11.003Z,17.90
2019-02-20T01:26:40.241Z,21.80
2019-02-20T01:29:09.322Z,19.30
2019-02-20T01:31:38.378Z,21.47
2019-02-20T01:34:07.574Z,18.53
2019-02-20T01:36:37.794Z,19.43
2019-02-20T01:39:07.232Z,16.50
2019-02-20T01:41:36.241Z,22.30
2019-02-20T01:44:05.416Z,21.60
2019-02-20T01:46:34.451Z,18.20
2019-02-20T01:49:03.494Z,21.33
2019-02-20T01:51:32.554Z,20.50
2019-02-20T01:54:01.565Z,18.90
2019-02-20T01:56:30.688Z,28.57
2019-02-20T01:58:59.749Z,20.63
2019-02-20T02:01:29.100Z,21.53
2019-02-20T02:03:58.189Z,19.43
2019-02-20T02:06:27.220Z,26.77
2019-02-20T02:08:56.389Z,20.43
2019-02-20T02:11:25.687Z,22.80
2019-02-20T02:13:54.754Z,22.07
2019-02-20T02:16:23.970Z,20.37
2019-02-20T02:18:53.084Z,18.07
2019-02-20T02:21:22.290Z,19.67
2019-02-20T02:23:51.449Z,19.33
2019-02-20T02:26:20.569Z,21.47
2019-02-20T02:28:49.561Z,16.77
2019-02-20T02:31:18.552Z,17.83
2019-02-20T02:33:47.668Z,21.30
2019-02-20T02:36:16.844Z,18.67
2019-02-20T02:38:46.385Z,23.97
2019-02-20T02:41:16.355Z,19.90
2019-02-20T02:43:45.676Z,20.87
2019-02-20T02:46:14.652Z,23.57
2019-02-20T02:48:43.849Z,16.57
2019-02-20T02:51:12.920Z,24.43
2019-02-20T02:53:42.350Z,18.37
2019-02-20T02:56:11.731Z,16.77
2019-02-20T02:58:42.306Z,21.63
2019-02-20T03:01:11.472Z,19.20
2019-02-20T03:03:41.365Z,19.80
2019-02-20T03:06:11.162Z,18.50
2019-02-20T03:08:40.165Z,18.50
2019-02-20T03:11:13.310Z,18.90
2019-02-20T03:13:44.961Z,19.07
2019-02-20T03:16:14.187Z,19.43
2019-02-20T03:18:43.264Z,26.73
2019-02-20T03:21:12.331Z,23.70
2019-02-20T03:23:41.630Z,21.73
2019-02-20T03:26:10.738Z,26.20
2019-02-20T03:28:40.272Z,24.80
2019-02-20T03:31:09.470Z,17.20
2019-02-20T03:33:38.661Z,20.77
2019-02-20T03:36:07.923Z,20.53
2019-02-20T03:38:37.111Z,22.80
2019-02-20T03:41:06.387Z,21.80
2019-02-20T03:43:35.766Z,20.70
2019-02-20T03:46:05.467Z,24.57
2019-02-20T03:48:34.702Z,31.03
2019-02-20T03:51:04.119Z,21.80
2019-02-20T03:53:33.202Z,26.47
2019-02-20T03:56:02.390Z,21.00
2019-02-20T03:58:33.215Z,17.70
2019-02-20T04:01:02.660Z,24.53
2019-02-20T04:03:31.729Z,19.03
2019-02-20T04:06:02.814Z,23.63
2019-02-20T04:08:31.979Z,19.70
2019-02-20T04:11:01.047Z,19.70
2019-02-20T04:13:30.167Z,27.07
2019-02-20T04:15:59.586Z,17.93
2019-02-20T04:18:29.782Z,25.97
2019-02-20T04:20:59.040Z,20.80
2019-02-20T04:23:28.052Z,16.17
2019-02-20T04:25:57.205Z,16.87
2019-02-20T04:28:26.440Z,19.03
2019-02-20T04:30:55.602Z,20.37
2019-02-20T04:33:24.779Z,20.97
2019-02-20T04:35:53.914Z,22.67
2019-02-20T04:38:23.100Z,20.27
2019-02-20T04:40:52.272Z,16.83
2019-02-20T04:43:21.538Z,23.57
2019-02-20T04:45:52.317Z,20.20
2019-02-20T04:48:21.525Z,17.43
2019-02-20T04:50:50.843Z,22.47
2019-02-20T04:53:19.985Z,16.63
2019-02-20T04:55:49.586Z,18.07
2019-02-20T04:58:22.856Z,18.87
2019-02-20T05:00:52.231Z,16.53
2019-02-20T05:03:23.149Z,17.53
2019-02-20T05:05:52.426Z,20.23
2019-02-20T05:08:21.479Z,17.17
2019-02-20T05:10:50.643Z,16.47
2019-02-20T05:13:19.694Z,16.93
2019-02-20T05:15:48.756Z,13.40
2019-02-20T05:18:17.749Z,18.23
2019-02-20T05:20:46.923Z,20.80
2019-02-20T05:23:17.186Z,16.27
2019-02-20T05:25:46.292Z,13.90
2019-02-20T05:28:15.437Z,20.37
2019-02-20T05:30:44.823Z,14.97
2019-02-20T05:33:13.840Z,17.60
2019-02-20T05:35:43.217Z,12.57
2019-02-20T05:38:12.624Z,13.43
2019-02-20T05:40:41.700Z,15.97
2019-02-20T05:43:11.358Z,15.07
2019-02-20T05:45:40.423Z,15.67
2019-02-20T05:48:09.610Z,15.83
2019-02-20T05:50:38.683Z,17.43
2019-02-20T05:53:07.640Z,12.73
2019-02-20T05:55:36.812Z,14.07
2019-02-20T05:58:06.118Z,13.60
2019-02-20T06:00:35.420Z,13.40
2019-02-20T06:03:05.114Z,12.87
2019-02-20T06:05:34.666Z,11.77
2019-02-20T06:08:04.107Z,14.50
2019-02-20T06:10:33.273Z,16.43
2019-02-20T06:13:02.449Z,15.00
2019-02-20T06:15:31.531Z,15.13
2019-02-20T06:18:00.613Z,14.63
2019-02-20T06:20:31.129Z,16.80
2019-02-20T06:23:00.271Z,17.10
2019-02-20T06:25:29.454Z,16.23
2019-02-20T06:27:58.734Z,12.73
2019-02-20T06:30:27.899Z,15.20
2019-02-20T06:32:57.027Z,16.97
2019-02-20T06:35:28.966Z,15.03
2019-02-20T06:37:58.226Z,12.60
2019-02-20T06:40:28.690Z,13.27
2019-02-20T06:42:58.027Z,14.97
2019-02-20T06:45:28.909Z,14.50
2019-02-20T06:47:58.041Z,13.70
2019-02-20T06:50:28.155Z,12.13
2019-02-20T06:52:57.317Z,12.53
2019-02-20T06:55:26.862Z,14.10
2019-02-20T06:57:56.183Z,19.10
2019-02-20T07:00:25.517Z,9.90
2019-02-20T07:02:54.662Z,18.07
2019-02-20T07:06:08.210Z,12.63
2019-02-20T07:09:12.798Z,15.40
2019-02-20T07:12:08.970Z,15.03
2019-02-20T07:15:17.513Z,15.23
2019-02-20T07:18:28.148Z,11.47
2019-02-20T07:21:37.567Z,13.83
2019-02-20T07:24:30.169Z,14.37
2019-02-20T07:27:37.089Z,17.70
2019-02-20T07:30:09.058Z,14.63
2019-02-20T07:32:38.401Z,15.80
2019-02-20T07:35:09.461Z,18.17
2019-02-20T07:37:38.865Z,9.20
2019-02-20T07:40:12.439Z,16.17
2019-02-20T07:42:41.986Z,15.93
2019-02-20T07:45:13.833Z,16.13
2019-02-20T07:47:43.232Z,16.80
2019-02-20T07:50:15.034Z,17.83
2019-02-20T07:52:44.147Z,15.83
2019-02-20T07:55:13.886Z,15.73
2019-02-20T07:57:45.733Z,18.93
2019-02-20T08:00:16.441Z,13.83
2019-02-20T08:02:45.655Z,17.27
2019-02-20T08:05:14.841Z,18.40
2019-02-20T08:07:45.787Z,11.90
2019-02-20T08:10:14.913Z,17.40
2019-02-20T08:12:43.996Z,21.37
2019-02-20T08:15:13.239Z,15.57
2019-02-20T08:17:44.551Z,17.20
2019-02-20T08:20:13.644Z,19.60
2019-02-20T08:22:42.781Z,21.70
2019-02-20T08:25:11.977Z,17.53
2019-02-20T08:27:41.296Z,18.10
2019-02-20T08:30:15.062Z,15.13
2019-02-20T08:32:44.055Z,16.53
2019-02-20T08:35:13.630Z,20.20
2019-02-20T08:37:43.017Z,20.87
2019-02-20T08:40:14.275Z,19.53
2019-02-20T08:42:43.327Z,20.70
2019-02-20T08:45:12.934Z,18.97
2019-02-20T08:47:43.665Z,20.67
2019-02-20T08:50:13.637Z,17.23
2019-02-20T08:52:44.464Z,19.83
2019-02-20T08:55:14.465Z,20.93
2019-02-20T08:57:43.666Z,21.30
2019-02-20T09:00:13.929Z,19.33
2019-02-20T09:02:43.215Z,24.23
2019-02-20T09:05:12.515Z,22.37
2019-02-20T09:07:41.719Z,18.97
2019-02-20T09:10:11.129Z,23.30
2019-02-20T09:12:40.379Z,24.20
2019-02-20T09:15:09.967Z,19.23
2019-02-20T09:17:39.438Z,23.90
2019-02-20T09:20:09.553Z,16.90
2019-02-20T09:22:39.547Z,20.50
2019-02-20T09:25:19.457Z,22.03
2019-02-20T09:27:44.215Z,21.17
2019-02-20T09:30:13.879Z,19.57
2019-02-20T09:32:43.666Z,25.47
2019-02-20T09:35:13.024Z,17.57
2019-02-20T09:37:42.109Z,21.77
2019-02-20T09:40:13.984Z,16.93
2019-02-20T09:42:44.586Z,19.07
2019-02-20T09:45:13.647Z,18.70
2019-02-20T09:47:42.721Z,20.23
2019-02-20T09:50:11.845Z,21.67
2019-02-20T09:52:41.163Z,19.90
2019-02-20T09:55:10.850Z,17.03
2019-02-20T09:57:40.035Z,18.53
2019-02-20T10:00:11.751Z,18.37
2019-02-20T10:02:41.156Z,20.87
2019-02-20T10:05:10.893Z,21.77
2019-02-20T10:07:40.143Z,20.87
2019-02-20T10:10:09.403Z,18.27
2019-02-20T10:12:39.347Z,17.17
2019-02-20T10:15:09.887Z,18.30
2019-02-20T10:17:38.905Z,13.53
2019-02-20T10:20:08.958Z,13.73
2019-02-20T10:22:38.024Z,15.03
2019-02-20T10:25:07.333Z,17.97
2019-02-20T10:27:36.695Z,17.60
2019-02-20T10:30:08.703Z,16.13
2019-02-20T10:32:37.936Z,13.63
2019-02-20T10:35:07.979Z,15.93
2019-02-20T10:37:37.202Z,16.77
2019-02-20T10:40:06.590Z,14.30
2019-02-20T10:42:35.799Z,11.43
2019-02-20T10:45:05.181Z,13.03
2019-02-20T10:47:36.575Z,15.00
2019-02-20T10:50:06.105Z,13.53
2019-02-20T10:52:35.198Z,14.77
2019-02-20T10:55:04.555Z,20.00
2019-02-20T10:57:33.691Z,16.73
2019-02-20T11:00:03.931Z,15.83
2019-02-20T11:02:33.185Z,15.37
2019-02-20T11:05:02.373Z,17.03
2019-02-20T11:07:31.635Z,14.90
2019-02-20T11:10:00.657Z,18.37
2019-02-20T11:12:29.736Z,17.23
2019-02-20T11:14:58.932Z,14.10
2019-02-20T11:17:28.095Z,13.73
2019-02-20T11:19:57.472Z,13.23
2019-02-20T11:22:27.567Z,14.40
2019-02-20T11:24:56.888Z,19.33
2019-02-20T11:27:26.149Z,13.73
2019-02-20T11:29:55.376Z,14.13
2019-02-20T11:32:24.469Z,14.97
2019-02-20T11:34:53.635Z,15.10
2019-02-20T11:37:22.857Z,15.57
2019-02-20T11:39:53.927Z,12.00
2019-02-20T11:42:23.035Z,15.33
2019-02-20T11:44:52.054Z,16.90
2019-02-20T11:47:21.354Z,15.20
2019-02-20T11:49:50.519Z,15.90
2019-02-20T11:52:19.808Z,16.57
2019-02-20T11:54:49.019Z,18.37
2019-02-20T11:57:22.551Z,14.03
2019-02-20T11:59:51.725Z,13.77
2019-02-20T12:02:20.992Z,14.13
2019-02-20T12:04:50.347Z,15.57
2019-02-20T12:07:19.748Z,17.17
2019-02-20T12:09:50.465Z,14.20
2019-02-20T12:12:19.653Z,13.30
2019-02-20T12:14:50.400Z,14.33
2019-02-20T12:17:19.522Z,13.73
2019-02-20T12:19:48.651Z,12.63
2019-02-20T12:22:19.734Z,15.57
2019-02-20T12:24:48.837Z,14.37
2019-02-20T12:27:18.137Z,13.03
2019-02-20T12:29:47.368Z,13.47
2019-02-20T12:32:16.534Z,13.37
2019-02-20T12:34:46.510Z,11.17
2019-02-20T12:37:17.871Z,15.20
2019-02-20T12:39:47.072Z,14.55
2019-02-20T12:42:16.189Z,9.60
2019-02-20T12:44:45.486Z,15.53
2019-02-20T12:47:14.635Z,13.17
2019-02-20T12:49:43.874Z,13.53
2019-02-20T12:52:13.194Z,13.70
2019-02-20T12:54:42.339Z,10.73
2019-02-20T12:57:11.448Z,14.13
2019-02-20T12:59:40.661Z,11.80
2019-02-20T13:02:09.739Z,9.23
2019-02-20T13:04:39.198Z,10.03
2019-02-20T13:07:08.288Z,10.47
2019-02-20T13:09:37.522Z,10.67
2019-02-20T13:12:06.693Z,10.00
2019-02-20T13:14:35.922Z,9.40
2019-02-20T13:17:05.290Z,7.17
2019-02-20T13:19:34.648Z,9.50
2019-02-20T13:22:06.483Z,9.33
2019-02-20T13:24:35.982Z,8.47
2019-02-20T13:27:08.631Z,8.67
2019-02-20T13:29:36.052Z,9.10
2019-02-20T13:32:05.686Z,8.13
2019-02-20T13:34:34.852Z,6.80
2019-02-20T13:37:04.081Z,8.07
2019-02-20T13:39:33.206Z,11.33
2019-02-20T13:42:03.295Z,14.10
2019-02-20T13:44:32.537Z,8.20
2019-02-20T13:47:01.772Z,10.90
2019-02-20T13:49:30.871Z,12.20
2019-02-20T13:52:02.984Z,9.77
2019-02-20T13:54:35.406Z,10.97
2019-02-20T13:57:03.470Z,11.23
2019-02-20T13:59:32.746Z,6.43
2019-02-20T14:02:02.304Z,8.13
2019-02-20T14:04:31.638Z,10.43
2019-02-20T14:07:01.175Z,10.23
2019-02-20T14:09:30.305Z,10.77
2019-02-20T14:11:59.527Z,8.57
2019-02-20T14:14:28.585Z,10.07
2019-02-20T14:16:57.907Z,8.23
2019-02-20T14:19:27.166Z,8.67
2019-02-20T14:21:56.438Z,8.10
2019-02-20T14:24:25.779Z,7.80
2019-02-20T14:26:54.936Z,7.67
2019-02-20T14:29:24.255Z,7.23
2019-02-20T14:31:54.427Z,10.23
2019-02-20T14:34:24.065Z,9.73
2019-02-20T14:36:53.222Z,8.43
2019-02-20T14:39:22.396Z,7.70
2019-02-20T14:41:52.021Z,6.22
2019-02-20T14:44:21.454Z,8.17
2019-02-20T14:46:51.042Z,6.47
2019-02-20T14:49:20.210Z,7.28
2019-02-20T14:51:49.781Z,9.83
2019-02-20T14:54:19.248Z,3.70
2019-02-20T14:56:48.581Z,4.75
2019-02-20T14:59:17.709Z,7.27
2019-02-20T15:01:49.105Z,7.17
2019-02-20T15:04:18.179Z,7.63
2019-02-20T15:06:47.355Z,9.57
2019-02-20T15:09:16.499Z,5.12
2019-02-20T15:11:45.867Z,7.33
2019-02-20T15:14:16.168Z,5.05
2019-02-20T15:16:48.787Z,5.93
2019-02-20T15:19:18.231Z,6.22
2019-02-20T15:21:48.644Z,8.03
2019-02-20T15:24:18.179Z,5.30
2019-02-20T15:26:47.489Z,6.47
2019-02-20T15:29:17.172Z,6.33
2019-02-20T15:31:46.881Z,7.63
2019-02-20T15:34:16.167Z,9.00
2019-02-20T15:36:46.193Z,8.10
2019-02-20T15:39:15.300Z,8.40
2019-02-20T15:41:44.649Z,6.47
2019-02-20T15:44:13.939Z,8.93
2019-02-20T15:46:43.278Z,8.50
2019-02-20T15:49:12.573Z,7.57
2019-02-20T15:51:42.114Z,8.67
2019-02-20T15:54:11.479Z,10.40
2019-02-20T15:56:40.806Z,10.87
2019-02-20T15:59:09.921Z,8.30
2019-02-20T16:01:39.998Z,7.00
2019-02-20T16:04:09.653Z,7.43
2019-02-20T16:06:39.186Z,9.13
2019-02-20T16:09:08.388Z,8.03
2019-02-20T16:11:37.460Z,8.20
2019-02-20T16:14:06.718Z,8.83
2019-02-20T16:16:35.911Z,8.63
2019-02-20T16:19:05.466Z,9.10
2019-02-20T16:21:34.470Z,8.40
2019-02-20T16:24:03.786Z,8.10
2019-02-20T16:26:33.331Z,10.63
2019-02-20T16:29:02.603Z,9.63
2019-02-20T16:31:31.665Z,9.67
2019-02-20T16:34:01.453Z,8.30
2019-02-20T16:36:30.648Z,9.07
2019-02-20T16:39:02.421Z,7.40
2019-02-20T16:41:31.749Z,8.67
2019-02-20T16:44:01.024Z,7.27
2019-02-20T16:46:30.176Z,9.13
2019-02-20T16:48:59.457Z,9.80
2019-02-20T16:51:28.609Z,8.27
2019-02-20T16:53:57.700Z,11.53
2019-02-20T16:56:26.904Z,11.53
2019-02-20T16:58:56.546Z,15.17
2019-02-20T17:01:27.026Z,10.13
2019-02-20T17:03:56.334Z,12.45
2019-02-20T17:06:25.504Z,11.23
2019-02-20T17:08:54.580Z,12.17
2019-02-20T17:11:23.871Z,11.63
2019-02-20T17:13:56.443Z,10.57
2019-02-20T17:16:25.910Z,12.03
2019-02-20T17:18:55.082Z,13.67
2019-02-20T17:21:24.376Z,9.80
2019-02-20T17:23:53.836Z,9.73
2019-02-20T17:26:23.270Z,11.90
2019-02-20T17:28:52.452Z,10.90
2019-02-20T17:31:22.008Z,10.77
2019-02-20T17:33:51.160Z,13.50
2019-02-20T17:36:20.347Z,14.93
2019-02-20T17:38:50.684Z,12.13
2019-02-20T17:41:20.027Z,11.57
2019-02-20T17:43:49.045Z,14.07
2019-02-20T17:46:18.715Z,9.77
2019-02-20T17:48:48.322Z,10.23
2019-02-20T17:51:17.715Z,9.70
2019-02-20T17:53:47.250Z,16.10
2019-02-20T17:56:17.269Z,12.00
2019-02-20T17:58:46.205Z,11.20
2019-02-20T18:01:17.281Z,16.43
2019-02-20T18:03:46.310Z,16.00
2019-02-20T18:06:15.537Z,13.73
2019-02-20T18:08:44.681Z,12.27
2019-02-20T18:11:19.013Z,11.77
2019-02-20T18:13:48.183Z,11.27
2019-02-20T18:16:17.350Z,10.20
2019-02-20T18:18:46.460Z,9.83
2019-02-20T18:21:15.578Z,12.60
2019-02-20T18:23:44.990Z,11.77
2019-02-20T18:26:14.211Z,11.63
2019-02-20T18:28:43.281Z,12.37
2019-02-20T18:31:12.366Z,15.10
2019-02-20T18:33:41.501Z,16.27
2019-02-20T18:36:11.587Z,12.67
2019-02-20T18:38:40.881Z,16.47
2019-02-20T18:41:10.049Z,8.70
2019-02-20T18:43:39.392Z,13.73
2019-02-20T18:46:09.444Z,15.40
2019-02-20T18:48:38.741Z,11.60
2019-02-20T18:51:07.900Z,13.43
2019-02-20T18:53:38.831Z,15.33
2019-02-20T18:56:08.134Z,15.37
2019-02-20T18:58:37.279Z,13.87
2019-02-20T19:01:06.442Z,13.53
2019-02-20T19:03:36.742Z,15.60
2019-02-20T19:06:06.098Z,13.93
2019-02-20T19:08:49.573Z,14.30
2019-02-20T19:11:45.125Z,14.60
2019-02-20T19:14:51.516Z,13.53
2019-02-20T19:18:14.183Z,13.67
2019-02-20T19:21:38.343Z,14.17
2019-02-20T19:24:47.818Z,16.43
2019-02-20T19:27:58.181Z,14.33
2019-02-20T19:31:12.674Z,14.90
2019-02-20T19:34:10.729Z,17.10
2019-02-20T19:37:15.487Z,10.97
2019-02-20T19:40:10.820Z,12.47
2019-02-20T19:43:15.390Z,12.27
2019-02-20T19:46:22.350Z,13.17
2019-02-20T19:49:12.494Z,15.63
2019-02-20T19:52:28.357Z,14.53
2019-02-20T19:55:15.231Z,13.10
2019-02-20T19:58:23.983Z,14.23
2019-02-20T20:01:15.893Z,10.93
2019-02-20T20:04:21.978Z,11.80
2019-02-20T20:07:21.054Z,15.50
2019-02-20T20:10:29.078Z,16.27
2019-02-20T20:13:38.527Z,14.80
2019-02-20T20:16:50.904Z,12.90
2019-02-20T20:19:49.098Z,17.03
2019-02-20T20:23:02.191Z,16.33
2019-02-20T20:25:59.698Z,17.83
2019-02-20T20:29:15.265Z,15.70
2019-02-20T20:32:29.099Z,17.03
2019-02-20T20:35:30.570Z,16.70
2019-02-20T20:38:11.902Z,16.57
2019-02-20T20:41:12.226Z,17.53
2019-02-20T20:44:04.384Z,20.63
2019-02-20T20:47:01.585Z,17.70
2019-02-20T20:49:51.291Z,16.40
2019-02-20T20:53:04.277Z,19.10
2019-02-20T20:56:08.226Z,17.73
2019-02-20T20:59:17.117Z,17.40
2019-02-20T21:02:24.803Z,18.73
2019-02-20T21:05:55.972Z,15.90
2019-02-20T21:08:36.174Z,18.40
2019-02-20T21:11:47.873Z,16.93
2019-02-20T21:14:53.797Z,18.00
2019-02-20T21:17:57.182Z,17.93
2019-02-20T21:20:51.891Z,16.77
2019-02-20T21:23:53.140Z,20.83
2019-02-20T21:26:51.694Z,17.13
2019-02-20T21:29:36.902Z,16.53
2019-02-20T21:32:35.497Z,19.27
2019-02-20T21:35:14.266Z,15.77
2019-02-20T21:38:31.084Z,18.27
2019-02-20T21:41:33.784Z,19.10
2019-02-20T21:44:45.457Z,17.67
2019-02-20T21:47:47.875Z,17.50
2019-02-20T21:51:03.552Z,18.83
2019-02-20T21:54:15.871Z,19.67
2019-02-20T21:57:09.967Z,19.90
2019-02-20T22:00:16.895Z,22.83
2019-02-20T22:03:35.862Z,21.27
2019-02-20T22:06:31.986Z,19.10
2019-02-20T22:09:33.091Z,20.23
2019-02-20T22:12:51.226Z,19.20
2019-02-20T22:15:47.774Z,20.70
2019-02-20T22:18:57.229Z,19.40
2019-02-20T22:22:03.165Z,17.00
2019-02-20T22:25:13.651Z,18.53
2019-02-20T22:28:00.566Z,17.13
2019-02-20T22:30:56.812Z,20.07
2019-02-20T22:33:36.830Z,22.23
2019-02-20T22:36:32.742Z,18.70
2019-02-20T22:39:31.016Z,20.23
2019-02-20T22:42:43.366Z,18.10
2019-02-20T22:45:34.543Z,18.67
2019-02-20T22:48:50.495Z,17.10
2019-02-20T22:52:08.239Z,20.50
2019-02-20T22:55:12.742Z,18.63
2019-02-20T22:58:16.657Z,22.77
2019-02-20T23:01:21.702Z,18.83
2019-02-20T23:04:24.732Z,18.53
2019-02-20T23:07:12.702Z,19.17
2019-02-20T23:10:12.462Z,19.07
2019-02-20T23:13:08.471Z,19.40
2019-02-20T23:15:37.891Z,16.53
2019-02-20T23:18:07.731Z,20.63
2019-02-20T23:20:36.813Z,18.97
2019-02-20T23:23:07.965Z,18.63
2019-02-20T23:25:37.429Z,19.80
2019-02-20T23:28:07.447Z,17.53
2019-02-20T23:30:36.445Z,15.90
2019-02-20T23:33:05.795Z,14.93
2019-02-20T23:35:35.066Z,19.93
2019-02-20T23:38:04.220Z,21.40
2019-02-20T23:40:33.869Z,15.10
2019-02-20T23:43:04.060Z,20.20
2019-02-20T23:45:34.362Z,19.37
2019-02-20T23:48:04.111Z,14.63
2019-02-20T23:50:33.646Z,16.10
2019-02-20T23:53:03.618Z,18.23
2019-02-20T23:55:33.327Z,18.60
2019-02-20T23:58:04.770Z,22.13
